createdAt,value
2023-03-29T00:12:01.729Z,95417.91
2023-03-29T00:18:16.304Z,95414.28
2023-03-29T00:20:46.313Z,95403.19
2023-03-29T00:23:13.800Z,95411.66
2023-03-29T00:25:46.477Z,95414.84
2023-03-29T00:28:15.122Z,95401.75
2023-03-29T00:30:42.252Z,95395.72
2023-03-29T00:33:09.525Z,95399.75
2023-03-29T00:35:38.314Z,95397.50
2023-03-29T00:38:06.910Z,95383.00
2023-03-29T00:40:34.612Z,95395.47
2023-03-29T00:43:02.475Z,95393.25
2023-03-29T00:45:30.634Z,95394.03
2023-03-29T00:48:02.561Z,95391.00
2023-03-29T00:50:32.498Z,95383.50
2023-03-29T00:53:05.016Z,95388.34
2023-03-29T00:55:36.907Z,95377.88
2023-03-29T00:58:07.927Z,95372.63
2023-03-29T01:00:38.760Z,95376.25
2023-03-29T01:03:13.613Z,95373.03
2023-03-29T01:05:44.631Z,95372.06
2023-03-29T01:08:18.025Z,95367.03
2023-03-29T01:10:53.401Z,95358.75
2023-03-29T01:13:27.362Z,95345.06
2023-03-29T01:15:57.220Z,95339.03
2023-03-29T01:18:24.454Z,95329.97
2023-03-29T01:21:20.802Z,95315.06
2023-03-29T01:23:59.270Z,95319.72
2023-03-29T01:26:34.207Z,95311.06
2023-03-29T01:29:09.100Z,95300.56
2023-03-29T01:31:39.339Z,95275.78
2023-03-29T01:34:13.016Z,95275.78
2023-03-29T01:36:45.096Z,95273.59
2023-03-29T01:39:11.959Z,95287.50
2023-03-29T01:41:48.266Z,95264.38
2023-03-29T01:44:21.310Z,95269.03
2023-03-29T01:46:55.702Z,95255.13
2023-03-29T01:49:29.030Z,95253.53
2023-03-29T01:52:01.305Z,95250.09
2023-03-29T01:54:33.978Z,95243.47
2023-03-29T01:57:05.714Z,95243.91
2023-03-29T01:59:38.826Z,95242.88
2023-03-29T02:02:11.482Z,95242.66
2023-03-29T02:04:45.975Z,95237.63
2023-03-29T02:07:15.456Z,95215.44
2023-03-29T02:09:43.860Z,95211.56
2023-03-29T02:12:12.765Z,95200.91
2023-03-29T02:14:42.742Z,95209.56
2023-03-29T02:17:16.640Z,95203.72
2023-03-29T02:19:46.111Z,95196.69
2023-03-29T02:22:15.437Z,95185.78
2023-03-29T02:24:45.221Z,95174.88
2023-03-29T02:27:13.050Z,95183.09
2023-03-29T02:29:42.520Z,95174.84
2023-03-29T02:32:16.253Z,95175.41
2023-03-29T02:34:49.674Z,95165.97
2023-03-29T02:37:19.151Z,95174.84
2023-03-29T02:39:49.357Z,95189.75
2023-03-29T02:42:21.194Z,95181.94
2023-03-29T02:44:52.123Z,95181.16
2023-03-29T02:47:23.304Z,95171.03
2023-03-29T02:49:51.198Z,95160.94
2023-03-29T02:52:23.924Z,95174.03
2023-03-29T02:54:54.549Z,95171.03
2023-03-29T02:57:27.186Z,95181.72
2023-03-29T02:59:58.850Z,95178.88
2023-03-29T03:02:26.517Z,95172.25
2023-03-29T03:04:55.468Z,95177.50
2023-03-29T03:07:22.703Z,95174.44
2023-03-29T03:09:49.460Z,95176.25
2023-03-29T03:12:17.247Z,95178.19
2023-03-29T03:14:44.763Z,95183.84
2023-03-29T03:17:13.213Z,95187.84
2023-03-29T03:19:40.195Z,95188.81
2023-03-29T03:22:08.052Z,95195.63
2023-03-29T03:24:35.446Z,95208.31
2023-03-29T03:27:02.453Z,95205.06
2023-03-29T03:29:29.830Z,95212.47
2023-03-29T03:32:19.030Z,95218.69
2023-03-29T03:35:18.106Z,95217.81
2023-03-29T03:37:46.066Z,95207.94
2023-03-29T03:40:13.830Z,95197.81
2023-03-29T03:42:43.438Z,95173.56
2023-03-29T03:45:12.889Z,95169.72
2023-03-29T03:47:57.960Z,95165.28
2023-03-29T03:50:49.938Z,95168.47
2023-03-29T03:53:18.303Z,95171.69
2023-03-29T03:56:08.948Z,95165.66
2023-03-29T03:58:46.341Z,95155.38
2023-03-29T04:01:14.166Z,95148.91
2023-03-29T04:03:51.562Z,95146.63
2023-03-29T04:06:19.366Z,95144.16
2023-03-29T04:09:13.102Z,95151.22
2023-03-29T04:11:46.700Z,95149.63
2023-03-29T04:14:14.359Z,95153.25
2023-03-29T04:17:04.573Z,95154.72
2023-03-29T04:19:47.876Z,95158.34
2023-03-29T04:22:14.763Z,95163.41
2023-03-29T04:24:42.449Z,95153.06
2023-03-29T04:27:21.684Z,95136.28
2023-03-29T04:29:48.896Z,95120.72
2023-03-29T04:32:30.260Z,95113.22
2023-03-29T04:35:06.319Z,95110.94
2023-03-29T04:37:33.622Z,95112.78
2023-03-29T04:40:01.774Z,95104.53
2023-03-29T04:42:35.585Z,95106.59
2023-03-29T04:45:02.613Z,95086.84
2023-03-29T04:50:35.117Z,95096.50
2023-03-29T04:53:05.042Z,95096.31
2023-03-29T04:55:32.273Z,95111.84
2023-03-29T04:58:02.933Z,95106.78
2023-03-29T05:03:32.505Z,95107.53
2023-03-29T05:08:48.399Z,95114.31
2023-03-29T05:11:44.858Z,95105.06
2023-03-29T05:14:12.726Z,95106.06
2023-03-29T05:16:42.782Z,95107.28
2023-03-29T05:19:11.272Z,95107.88
2023-03-29T05:21:45.088Z,95102.63
2023-03-29T05:24:16.638Z,95101.63
2023-03-29T05:26:57.192Z,95101.63
2023-03-29T05:29:26.817Z,95100.00
2023-03-29T05:32:03.528Z,95101.47
2023-03-29T05:34:32.237Z,95095.84
2023-03-29T05:37:21.437Z,95103.13
2023-03-29T05:39:54.315Z,95102.13
2023-03-29T05:42:34.722Z,95105.09
2023-03-29T05:45:08.711Z,95107.53
2023-03-29T05:47:38.971Z,95111.72
2023-03-29T05:50:10.019Z,95117.56
2023-03-29T05:52:38.833Z,95121.78
2023-03-29T05:55:07.931Z,95117.13
2023-03-29T05:57:36.904Z,95123.75
2023-03-29T06:00:16.853Z,95123.91
2023-03-29T06:02:44.573Z,95128.50
2023-03-29T06:05:11.954Z,95135.94
2023-03-29T06:07:55.875Z,95144.59
2023-03-29T06:10:57.193Z,95149.03
2023-03-29T06:13:39.201Z,95150.78
2023-03-29T06:16:09.359Z,95160.63
2023-03-29T06:18:46.055Z,95166.22
2023-03-29T06:21:13.885Z,95159.34
2023-03-29T06:23:43.004Z,95155.38
2023-03-29T06:26:11.269Z,95156.56
2023-03-29T06:28:39.098Z,95164.16
2023-03-29T06:31:06.749Z,95162.47
2023-03-29T06:33:38.885Z,95166.81
2023-03-29T06:36:28.948Z,95178.63
2023-03-29T06:38:57.154Z,95166.19
2023-03-29T06:41:49.136Z,95162.91
2023-03-29T06:44:25.684Z,95157.81
2023-03-29T06:46:59.898Z,95173.25
2023-03-29T06:49:27.513Z,95175.56
2023-03-29T06:52:04.986Z,95174.09
2023-03-29T06:54:35.988Z,95167.81
2023-03-29T06:57:08.143Z,95173.66
2023-03-29T06:59:35.742Z,95178.69
2023-03-29T07:02:16.867Z,95182.47
2023-03-29T07:04:56.213Z,95178.38
2023-03-29T07:07:37.382Z,95188.56
2023-03-29T07:10:16.659Z,95167.22
2023-03-29T07:13:08.769Z,95180.69
2023-03-29T07:15:36.374Z,95172.38
2023-03-29T07:18:19.973Z,95182.44
2023-03-29T07:20:48.547Z,95182.56
2023-03-29T07:23:15.481Z,95180.88
2023-03-29T07:25:44.967Z,95193.44
2023-03-29T07:28:11.866Z,95186.34
2023-03-29T07:30:39.218Z,95189.31
2023-03-29T07:33:13.523Z,95184.16
2023-03-29T07:36:02.288Z,95189.81
2023-03-29T07:38:30.232Z,95203.28
2023-03-29T07:41:07.583Z,95186.03
2023-03-29T07:43:52.005Z,95194.25
2023-03-29T07:46:25.306Z,95186.97
2023-03-29T07:48:52.699Z,95192.69
2023-03-29T07:51:19.975Z,95192.31
2023-03-29T07:53:54.660Z,95188.19
2023-03-29T07:56:32.738Z,95193.31
2023-03-29T07:59:19.935Z,95194.34
2023-03-29T08:01:56.797Z,95195.94
2023-03-29T08:07:19.422Z,95193.09
2023-03-29T08:09:57.938Z,95186.72
2023-03-29T08:13:08.421Z,95180.06
2023-03-29T08:15:52.107Z,95185.25
2023-03-29T08:18:26.597Z,95187.53
2023-03-29T08:20:53.420Z,95188.47
2023-03-29T08:23:20.414Z,95191.59
2023-03-29T08:26:08.721Z,95186.53
2023-03-29T08:28:38.585Z,95176.69
2023-03-29T08:31:17.069Z,95181.38
2023-03-29T08:33:52.538Z,95168.66
2023-03-29T08:36:38.257Z,95168.41
2023-03-29T08:39:15.832Z,95159.34
2023-03-29T08:44:54.125Z,95161.66
2023-03-29T08:50:26.454Z,95155.56
2023-03-29T08:53:05.318Z,95157.22
2023-03-29T08:55:56.827Z,95157.28
2023-03-29T09:14:37.755Z,95156.47
2023-03-29T12:17:56.286Z,94995.44
